sensor_id;sensor_type;location;lat;lon;timestamp;temperature;humidity
40556;DHT22;26250;45.422;11.100;2022-10-16T16:20:10;21.20;91.50
40556;DHT22;26250;45.422;11.100;2022-10-16T16:22:37;21.10;91.60
40556;DHT22;26250;45.422;11.100;2022-10-16T16:25:04;21.00;91.50
40556;DHT22;26250;45.422;11.100;2022-10-16T16:27:31;21.00;91.60
40556;DHT22;26250;45.422;11.100;2022-10-16T16:30:02;20.90;91.70
40556;DHT22;26250;45.422;11.100;2022-10-16T16:32:30;20.90;91.80
40556;DHT22;26250;45.422;11.100;2022-10-16T16:34:57;20.80;91.70
40556;DHT22;26250;45.422;11.100;2022-10-16T16:37:24;20.80;91.90
40556;DHT22;26250;45.422;11.100;2022-10-16T16:39:51;20.70;92.00
40556;DHT22;26250;45.422;11.100;2022-10-16T16:42:18;20.70;92.00
40556;DHT22;26250;45.422;11.100;2022-10-16T16:44:45;20.60;92.00
40556;DHT22;26250;45.422;11.100;2022-10-16T16:47:13;20.60;92.10
40556;DHT22;26250;45.422;11.100;2022-10-16T16:49:40;20.50;92.10
40556;DHT22;26250;45.422;11.100;2022-10-16T16:52:07;20.50;92.20
40556;DHT22;26250;45.422;11.100;2022-10-16T16:54:36;20.40;92.30
40556;DHT22;26250;45.422;11.100;2022-10-16T16:57:06;20.40;92.20
40556;DHT22;26250;45.422;11.100;2022-10-16T16:59:33;20.40;92.20
40556;DHT22;26250;45.422;11.100;2022-10-16T17:02:00;20.30;92.10
40556;DHT22;26250;45.422;11.100;2022-10-16T17:04:30;20.30;92.00
40556;DHT22;26250;45.422;11.100;2022-10-16T17:06:57;20.20;92.00
40556;DHT22;26250;45.422;11.100;2022-10-16T17:09:26;20.10;92.10
40556;DHT22;26250;45.422;11.100;2022-10-16T17:11:54;20.00;92.30
40556;DHT22;26250;45.422;11.100;2022-10-16T17:14:21;20.00;92.40
40556;DHT22;26250;45.422;11.100;2022-10-16T17:16:47;20.00;92.20
40556;DHT22;26250;45.422;11.100;2022-10-16T17:19:17;20.00;92.20
40556;DHT22;26250;45.422;11.100;2022-10-16T17:21:45;20.00;92.30
40556;DHT22;26250;45.422;11.100;2022-10-16T17:24:11;19.90;92.50
40556;DHT22;26250;45.422;11.100;2022-10-16T17:26:38;19.80;92.60
40556;DHT22;26250;45.422;11.100;2022-10-16T17:29:08;19.70;92.70
40556;DHT22;26250;45.422;11.100;2022-10-16T17:31:36;19.70;92.60
40556;DHT22;26250;45.422;11.100;2022-10-16T17:34:06;19.70;92.60
40556;DHT22;26250;45.422;11.100;2022-10-16T17:36:35;19.70;92.70
40556;DHT22;26250;45.422;11.100;2022-10-16T17:39:06;19.60;92.80
40556;DHT22;26250;45.422;11.100;2022-10-16T17:41:35;19.60;92.70
40556;DHT22;26250;45.422;11.100;2022-10-16T17:44:03;19.60;92.90
40556;DHT22;26250;45.422;11.100;2022-10-16T17:46:33;19.50;92.80
40556;DHT22;26250;45.422;11.100;2022-10-16T17:49:08;19.50;93.00
40556;DHT22;26250;45.422;11.100;2022-10-16T17:51:35;19.40;93.00
40556;DHT22;26250;45.422;11.100;2022-10-16T17:54:02;19.30;93.00
40556;DHT22;26250;45.422;11.100;2022-10-16T17:56:29;19.20;93.40
40556;DHT22;26250;45.422;11.100;2022-10-16T17:58:58;19.20;93.30
40556;DHT22;26250;45.422;11.100;2022-10-16T18:01:38;19.20;93.10
40556;DHT22;26250;45.422;11.100;2022-10-16T18:04:13;19.30;93.00
40556;DHT22;26250;45.422;11.100;2022-10-16T18:06:43;19.20;93.20
40556;DHT22;26250;45.422;11.100;2022-10-16T18:09:11;19.20;93.10
40556;DHT22;26250;45.422;11.100;2022-10-16T18:11:40;19.10;93.30
40556;DHT22;26250;45.422;11.100;2022-10-16T18:14:06;19.10;93.50
40556;DHT22;26250;45.422;11.100;2022-10-16T18:16:33;19.00;93.40
40556;DHT22;26250;45.422;11.100;2022-10-16T18:19:02;18.90;93.40
40556;DHT22;26250;45.422;11.100;2022-10-16T18:21:30;18.90;93.60
40556;DHT22;26250;45.422;11.100;2022-10-16T18:23:58;18.80;93.70
40556;DHT22;26250;45.422;11.100;2022-10-16T18:26:25;18.80;94.00
40556;DHT22;26250;45.422;11.100;2022-10-16T18:28:54;18.70;94.30
40556;DHT22;26250;45.422;11.100;2022-10-16T18:31:22;18.60;94.40
40556;DHT22;26250;45.422;11.100;2022-10-16T18:33:49;18.60;94.60
40556;DHT22;26250;45.422;11.100;2022-10-16T18:36:37;18.50;94.60
40556;DHT22;26250;45.422;11.100;2022-10-16T18:39:06;18.60;94.70
40556;DHT22;26250;45.422;11.100;2022-10-16T18:41:36;18.50;94.70
40556;DHT22;26250;45.422;11.100;2022-10-16T18:44:05;18.50;94.80
40556;DHT22;26250;45.422;11.100;2022-10-16T18:46:32;18.50;94.40
40556;DHT22;26250;45.422;11.100;2022-10-16T18:48:59;18.50;94.20
40556;DHT22;26250;45.422;11.100;2022-10-16T18:51:30;18.50;94.20
40556;DHT22;26250;45.422;11.100;2022-10-16T18:54:00;18.50;94.30
40556;DHT22;26250;45.422;11.100;2022-10-16T18:56:28;18.50;94.50
40556;DHT22;26250;45.422;11.100;2022-10-16T18:58:58;18.50;94.50
40556;DHT22;26250;45.422;11.100;2022-10-16T19:01:27;18.50;94.70
40556;DHT22;26250;45.422;11.100;2022-10-16T19:03:55;18.50;94.50
40556;DHT22;26250;45.422;11.100;2022-10-16T19:06:24;18.40;94.70
40556;DHT22;26250;45.422;11.100;2022-10-16T19:08:53;18.30;94.90
40556;DHT22;26250;45.422;11.100;2022-10-16T19:11:21;18.40;94.80
40556;DHT22;26250;45.422;11.100;2022-10-16T19:13:49;18.30;95.30
40556;DHT22;26250;45.422;11.100;2022-10-16T19:16:17;18.30;95.20
40556;DHT22;26250;45.422;11.100;2022-10-16T19:18:51;18.30;95.10
40556;DHT22;26250;45.422;11.100;2022-10-16T19:21:18;18.30;94.70
40556;DHT22;26250;45.422;11.100;2022-10-16T19:23:45;18.30;94.40
40556;DHT22;26250;45.422;11.100;2022-10-16T19:26:16;18.30;94.50
40556;DHT22;26250;45.422;11.100;2022-10-16T19:28:44;18.20;94.80
40556;DHT22;26250;45.422;11.100;2022-10-16T19:31:17;18.20;95.00
40556;DHT22;26250;45.422;11.100;2022-10-16T19:33:45;18.30;94.90
40556;DHT22;26250;45.422;11.100;2022-10-16T19:36:18;18.30;95.00
40556;DHT22;26250;45.422;11.100;2022-10-16T19:38:46;18.30;95.10
40556;DHT22;26250;45.422;11.100;2022-10-16T19:41:16;18.30;94.80
40556;DHT22;26250;45.422;11.100;2022-10-16T19:43:45;18.30;94.70
40556;DHT22;26250;45.422;11.100;2022-10-16T19:46:24;18.30;94.90
40556;DHT22;26250;45.422;11.100;2022-10-16T19:48:57;18.30;94.90
40556;DHT22;26250;45.422;11.100;2022-10-16T19:51:26;18.30;94.20
40556;DHT22;26250;45.422;11.100;2022-10-16T19:53:58;18.20;94.10
40556;DHT22;26250;45.422;11.100;2022-10-16T19:56:28;18.00;94.50
40556;DHT22;26250;45.422;11.100;2022-10-16T19:58:56;17.90;95.20
40556;DHT22;26250;45.422;11.100;2022-10-16T20:01:25;17.80;95.70
40556;DHT22;26250;45.422;11.100;2022-10-16T20:03:57;17.80;95.80
40556;DHT22;26250;45.422;11.100;2022-10-16T20:06:24;17.90;95.60
40556;DHT22;26250;45.422;11.100;2022-10-16T20:08:54;17.90;95.40
40556;DHT22;26250;45.422;11.100;2022-10-16T20:11:28;17.80;95.50
40556;DHT22;26250;45.422;11.100;2022-10-16T20:13:55;17.80;95.60
40556;DHT22;26250;45.422;11.100;2022-10-16T20:16:23;17.80;95.60
40556;DHT22;26250;45.422;11.100;2022-10-16T20:18:51;17.80;96.20
40556;DHT22;26250;45.422;11.100;2022-10-16T20:21:29;17.80;95.90
40556;DHT22;26250;45.422;11.100;2022-10-16T20:23:58;17.60;96.00
40556;DHT22;26250;45.422;11.100;2022-10-16T20:26:25;17.60;96.10
40556;DHT22;26250;45.422;11.100;2022-10-16T20:28:54;17.60;95.90
40556;DHT22;26250;45.422;11.100;2022-10-16T20:31:25;17.60;96.00
40556;DHT22;26250;45.422;11.100;2022-10-16T20:33:54;17.50;96.40
40556;DHT22;26250;45.422;11.100;2022-10-16T20:36:23;17.60;95.90
40556;DHT22;26250;45.422;11.100;2022-10-16T20:38:51;17.60;96.10
40556;DHT22;26250;45.422;11.100;2022-10-16T20:41:18;17.50;96.60
40556;DHT22;26250;45.422;11.100;2022-10-16T20:43:47;17.60;96.40
40556;DHT22;26250;45.422;11.100;2022-10-16T20:46:18;17.70;95.90
40556;DHT22;26250;45.422;11.100;2022-10-16T20:48:45;17.80;95.80
